createdAt,value
2022-10-18T00:00:53.579Z,78.20
2022-10-18T00:03:21.985Z,77.92
2022-10-18T00:05:50.340Z,78.47
2022-10-18T00:08:18.981Z,77.73
2022-10-18T00:10:47.269Z,77.50
2022-10-18T00:13:14.971Z,77.95
2022-10-18T00:16:14.780Z,77.94
2022-10-18T00:18:43.472Z,81.47
2022-10-18T00:21:16.747Z,81.40
2022-10-18T00:23:45.844Z,85.29
2022-10-18T00:26:24.837Z,81.21
2022-10-18T00:29:00.863Z,81.00
2022-10-18T00:31:31.378Z,81.32
2022-10-18T00:34:01.967Z,80.83
2022-10-18T00:36:32.240Z,82.55
2022-10-18T00:39:01.254Z,82.42
2022-10-18T00:41:31.471Z,79.23
2022-10-18T00:44:06.491Z,78.33
2022-10-18T00:46:36.519Z,78.17
2022-10-18T00:49:12.031Z,80.36
2022-10-18T00:51:45.537Z,78.77
2022-10-18T00:54:14.251Z,77.72
2022-10-18T00:56:44.956Z,78.33
2022-10-18T00:59:14.661Z,79.96
2022-10-18T01:01:43.098Z,78.36
2022-10-18T01:04:11.938Z,80.39
2022-10-18T01:06:53.014Z,79.36
2022-10-18T01:09:25.629Z,79.70
2022-10-18T01:12:21.000Z,80.90
2022-10-18T01:15:04.460Z,80.09
2022-10-18T01:17:38.939Z,83.68
2022-10-18T01:20:37.520Z,82.42
2022-10-18T01:23:05.236Z,79.20
2022-10-18T01:26:02.670Z,78.01
2022-10-18T01:28:53.216Z,77.49
2022-10-18T01:31:26.599Z,78.63
2022-10-18T01:33:58.977Z,78.38
2022-10-18T01:36:34.419Z,82.05
2022-10-18T01:39:08.060Z,80.95
2022-10-18T01:41:37.510Z,79.44
2022-10-18T01:44:07.600Z,81.33
2022-10-18T01:46:36.328Z,82.62
2022-10-18T01:49:04.713Z,81.43
2022-10-18T01:51:33.480Z,81.99
2022-10-18T01:54:01.509Z,77.80
2022-10-18T01:56:39.388Z,77.18
2022-10-18T01:59:44.858Z,77.02
2022-10-18T02:02:39.402Z,79.79
2022-10-18T02:05:10.499Z,78.80
2022-10-18T02:07:41.011Z,81.92
2022-10-18T02:12:48.508Z,81.49
2022-10-18T02:15:21.778Z,80.02
2022-10-18T02:17:50.750Z,82.70
2022-10-18T02:20:21.700Z,82.95
2022-10-18T02:22:51.418Z,82.63
2022-10-18T02:25:25.250Z,84.10
2022-10-18T02:27:55.715Z,83.84
2022-10-18T02:30:47.040Z,81.46
2022-10-18T02:33:23.188Z,81.91
2022-10-18T02:35:52.449Z,79.27
2022-10-18T02:38:20.799Z,78.27
2022-10-18T02:40:48.605Z,80.04
2022-10-18T02:43:16.898Z,80.31
2022-10-18T02:45:44.659Z,79.06
2022-10-18T02:48:12.479Z,82.22
2022-10-18T02:50:40.549Z,77.53
2022-10-18T02:53:08.358Z,80.66
2022-10-18T02:55:36.261Z,81.19
2022-10-18T02:58:04.397Z,78.25
2022-10-18T03:00:32.266Z,76.52
2022-10-18T03:03:00.133Z,78.19
2022-10-18T03:05:28.277Z,81.23
2022-10-18T03:07:59.208Z,79.98
2022-10-18T03:10:27.011Z,78.44
2022-10-18T03:12:55.128Z,81.59
2022-10-18T03:15:22.940Z,81.88
2022-10-18T03:17:50.698Z,82.61
2022-10-18T03:20:19.962Z,81.69
2022-10-18T03:22:47.679Z,78.55
2022-10-18T03:25:15.533Z,76.34
2022-10-18T03:27:44.889Z,76.12
2022-10-18T03:30:13.651Z,77.98
2022-10-18T03:32:41.446Z,79.50
2022-10-18T03:35:09.951Z,84.05
2022-10-18T03:37:38.208Z,78.74
2022-10-18T03:40:06.796Z,77.42
2022-10-18T03:42:35.212Z,78.43
2022-10-18T03:45:03.132Z,80.36
2022-10-18T03:47:31.199Z,80.86
2022-10-18T03:49:59.331Z,81.09
2022-10-18T03:52:29.002Z,78.57
2022-10-18T03:54:56.986Z,80.85
2022-10-18T03:57:25.252Z,81.27
2022-10-18T03:59:53.111Z,78.58
2022-10-18T04:02:20.963Z,75.68
2022-10-18T04:04:49.688Z,75.77
2022-10-18T04:07:17.513Z,77.53
2022-10-18T04:09:45.262Z,78.02
2022-10-18T04:12:13.530Z,77.88
2022-10-18T04:14:41.258Z,78.66
2022-10-18T04:17:09.340Z,78.35
2022-10-18T04:19:37.540Z,80.91
2022-10-18T04:22:05.359Z,81.31
2022-10-18T04:24:33.211Z,79.30
2022-10-18T04:27:01.379Z,81.85
2022-10-18T04:29:29.109Z,81.25
2022-10-18T04:31:57.001Z,80.20
2022-10-18T04:34:25.089Z,77.37
2022-10-18T04:36:52.967Z,77.02
2022-10-18T04:39:20.809Z,79.67
2022-10-18T04:41:48.950Z,76.83
2022-10-18T04:44:16.867Z,80.80
2022-10-18T04:46:44.640Z,79.18
2022-10-18T04:49:12.649Z,78.06
2022-10-18T04:51:40.647Z,79.75
2022-10-18T04:54:08.427Z,81.79
2022-10-18T04:56:36.550Z,80.58
2022-10-18T04:59:04.485Z,80.62
2022-10-18T05:01:32.431Z,82.95
2022-10-18T05:04:00.694Z,82.97
2022-10-18T05:06:28.470Z,84.45
2022-10-18T05:08:56.378Z,85.12
2022-10-18T05:11:24.551Z,84.82
2022-10-18T05:13:52.536Z,83.72
2022-10-18T05:16:20.375Z,81.26
2022-10-18T05:18:48.596Z,80.71
2022-10-18T05:21:16.899Z,82.25
2022-10-18T05:23:44.609Z,79.81
2022-10-18T05:26:12.690Z,76.50
2022-10-18T05:28:41.492Z,76.00
2022-10-18T05:31:11.660Z,77.77
2022-10-18T05:33:39.866Z,78.24
2022-10-18T05:36:07.988Z,78.73
2022-10-18T05:38:38.984Z,80.20
2022-10-18T05:41:07.618Z,81.06
2022-10-18T05:43:35.424Z,80.05
2022-10-18T05:46:04.971Z,83.33
2022-10-18T05:48:33.573Z,84.64
2022-10-18T05:51:01.837Z,84.25
2022-10-18T05:53:36.641Z,83.68
2022-10-18T05:56:06.548Z,84.83
2022-10-18T05:58:34.871Z,85.14
2022-10-18T06:01:03.958Z,85.49
2022-10-18T06:03:32.670Z,84.87
2022-10-18T06:06:04.456Z,87.33
2022-10-18T06:08:32.923Z,76.55
2022-10-18T06:11:00.880Z,74.70
2022-10-18T06:13:31.130Z,73.71
2022-10-18T06:16:00.900Z,74.09
2022-10-18T06:18:30.420Z,74.42
2022-10-18T06:20:59.871Z,74.49
2022-10-18T06:23:28.752Z,75.24
2022-10-18T06:26:04.682Z,75.98
2022-10-18T06:28:35.289Z,74.92
2022-10-18T06:31:04.043Z,75.20
2022-10-18T06:33:33.622Z,74.77
2022-10-18T06:36:06.491Z,73.94
2022-10-18T06:38:35.537Z,72.93
2022-10-18T06:41:06.245Z,72.38
2022-10-18T06:43:35.763Z,71.76
2022-10-18T06:46:06.891Z,70.39
2022-10-18T06:48:39.153Z,69.78
2022-10-18T06:51:08.501Z,70.78
2022-10-18T06:53:44.073Z,69.10
2022-10-18T06:56:17.769Z,69.11
2022-10-18T06:58:46.265Z,69.08
2022-10-18T07:01:16.494Z,68.85
2022-10-18T07:03:46.072Z,68.52
2022-10-18T07:06:16.703Z,68.81
2022-10-18T07:08:45.089Z,65.08
2022-10-18T07:11:16.823Z,66.49
2022-10-18T07:13:45.030Z,65.40
2022-10-18T07:16:18.382Z,65.18
2022-10-18T07:18:50.020Z,65.12
2022-10-18T07:21:27.402Z,65.29
2022-10-18T07:23:57.431Z,62.12
2022-10-18T07:26:29.256Z,61.89
2022-10-18T07:29:02.115Z,61.77
2022-10-18T07:31:30.478Z,61.27
2022-10-18T07:33:58.820Z,62.21
2022-10-18T07:36:27.770Z,61.39
2022-10-18T07:38:56.960Z,59.68
2022-10-18T07:41:29.381Z,61.03
2022-10-18T07:43:58.081Z,61.92
2022-10-18T07:46:26.772Z,60.71
2022-10-18T07:48:55.307Z,60.53
2022-10-18T07:51:24.819Z,60.57
2022-10-18T07:53:55.180Z,59.68
2022-10-18T07:56:25.421Z,55.32
2022-10-18T07:58:58.339Z,51.90
2022-10-18T08:01:27.018Z,50.95
2022-10-18T08:03:55.365Z,52.21
2022-10-18T08:06:24.481Z,50.79
2022-10-18T08:08:52.778Z,46.71
2022-10-18T08:11:23.612Z,50.47
2022-10-18T08:13:52.891Z,47.09
2022-10-18T08:16:29.238Z,44.95
2022-10-18T08:18:58.600Z,48.01
2022-10-18T08:21:27.041Z,47.53
2022-10-18T08:23:55.282Z,44.16
2022-10-18T08:26:25.180Z,43.14
2022-10-18T08:28:58.227Z,43.97
2022-10-18T08:31:37.948Z,40.11
2022-10-18T08:34:06.261Z,39.81
2022-10-18T08:36:34.567Z,40.95
2022-10-18T08:39:03.902Z,39.60
2022-10-18T08:41:38.076Z,38.08
2022-10-18T08:44:16.636Z,37.78
2022-10-18T08:46:49.100Z,40.71
2022-10-18T08:49:38.368Z,39.07
2022-10-18T08:52:33.159Z,34.27
2022-10-18T08:55:03.199Z,36.60
2022-10-18T08:57:32.367Z,37.88
2022-10-18T09:00:03.027Z,32.01
2022-10-18T09:02:42.366Z,33.03
2022-10-18T09:05:29.050Z,31.80
2022-10-18T09:08:17.063Z,29.75
2022-10-18T09:11:30.879Z,29.93
2022-10-18T09:14:09.574Z,31.23
2022-10-18T09:17:15.928Z,28.29
2022-10-18T09:19:57.839Z,27.97
2022-10-18T09:22:43.974Z,29.01
2022-10-18T09:25:49.954Z,28.47
2022-10-18T09:28:36.834Z,25.61
2022-10-18T09:31:06.789Z,27.20
2022-10-18T09:33:43.058Z,27.13
2022-10-18T09:36:17.331Z,27.49
2022-10-18T09:38:49.811Z,27.55
2022-10-18T09:41:41.504Z,27.78
2022-10-18T09:44:10.300Z,25.80
2022-10-18T09:46:42.482Z,25.52
2022-10-18T09:49:27.213Z,26.25
2022-10-18T09:52:10.749Z,25.86
2022-10-18T09:54:59.293Z,27.97
2022-10-18T09:57:31.782Z,26.91
2022-10-18T10:00:00.879Z,27.09
2022-10-18T10:02:29.536Z,25.32
2022-10-18T10:04:57.898Z,26.02
2022-10-18T10:07:35.387Z,27.69
2022-10-18T10:10:34.151Z,27.40
2022-10-18T10:13:23.303Z,27.33
2022-10-18T10:15:57.651Z,27.69
2022-10-18T10:18:36.290Z,27.42
2022-10-18T10:21:06.511Z,27.40
2022-10-18T10:23:39.080Z,28.00
2022-10-18T10:26:21.041Z,27.07
2022-10-18T10:28:49.221Z,28.31
2022-10-18T10:31:19.021Z,26.53
2022-10-18T10:33:47.942Z,28.85
2022-10-18T10:36:20.743Z,26.79
2022-10-18T10:39:10.011Z,28.72
2022-10-18T10:41:39.050Z,27.87
2022-10-18T10:44:16.782Z,27.79
2022-10-18T10:46:44.814Z,27.61
2022-10-18T10:49:41.035Z,27.56
2022-10-18T10:52:28.631Z,25.26
2022-10-18T10:55:11.397Z,26.19
2022-10-18T10:57:50.731Z,27.77
2022-10-18T11:00:34.440Z,27.73
2022-10-18T11:03:28.437Z,28.18
2022-10-18T11:06:01.024Z,29.40
2022-10-18T11:08:36.730Z,25.91
2022-10-18T11:11:28.004Z,24.52
2022-10-18T11:14:24.753Z,25.15
2022-10-18T11:17:13.357Z,25.69
2022-10-18T11:20:06.707Z,25.28
2022-10-18T11:22:40.331Z,25.26
2022-10-18T11:25:14.769Z,25.97
2022-10-18T11:28:00.841Z,27.25
2022-10-18T11:30:34.481Z,24.72
2022-10-18T11:34:03.661Z,24.70
2022-10-18T11:36:36.484Z,24.10
2022-10-18T11:39:32.979Z,24.22
2022-10-18T11:42:08.814Z,25.58
2022-10-18T11:44:45.580Z,24.01
2022-10-18T11:47:52.273Z,24.21
2022-10-18T11:50:26.888Z,25.63
2022-10-18T11:53:03.722Z,26.50
2022-10-18T11:55:39.773Z,27.36
2022-10-18T11:58:19.809Z,28.85
2022-10-18T12:00:59.352Z,29.78
2022-10-18T12:03:35.125Z,28.68
2022-10-18T12:06:12.800Z,29.06
2022-10-18T12:08:54.350Z,29.96
2022-10-18T12:11:29.790Z,30.19
2022-10-18T12:14:01.561Z,29.46
2022-10-18T12:16:50.593Z,30.20
2022-10-18T12:19:27.296Z,31.54
2022-10-18T12:22:16.823Z,30.33
2022-10-18T12:24:44.972Z,30.78
2022-10-18T12:27:15.531Z,31.74
2022-10-18T12:30:07.661Z,31.69
2022-10-18T12:32:37.117Z,32.29
2022-10-18T12:35:09.722Z,32.35
2022-10-18T12:37:48.879Z,34.27
2022-10-18T12:40:36.676Z,34.34
2022-10-18T12:43:10.590Z,33.01
2022-10-18T12:45:56.443Z,32.64
2022-10-18T12:48:39.742Z,34.28
2022-10-18T12:51:20.775Z,33.34
2022-10-18T12:54:02.980Z,32.00
2022-10-18T12:56:34.779Z,33.10
2022-10-18T12:59:15.400Z,33.42
2022-10-18T13:01:52.511Z,33.18
2022-10-18T13:04:41.062Z,32.08
2022-10-18T13:07:09.049Z,34.21
2022-10-18T13:09:40.890Z,32.15
2022-10-18T13:12:13.159Z,32.75
2022-10-18T13:15:20.512Z,35.19
2022-10-18T13:18:11.023Z,37.04
2022-10-18T13:20:56.923Z,32.05
2022-10-18T13:23:40.060Z,33.65
2022-10-18T13:26:25.511Z,33.39
2022-10-18T13:29:02.543Z,34.26
2022-10-18T13:31:40.289Z,33.72
2022-10-18T13:34:31.211Z,31.74
2022-10-18T13:37:19.401Z,35.85
2022-10-18T13:39:48.041Z,33.13
2022-10-18T13:42:16.210Z,36.95
2022-10-18T13:44:45.025Z,33.01
2022-10-18T13:47:15.451Z,34.24
2022-10-18T13:49:59.308Z,33.72
2022-10-18T13:52:42.831Z,34.80
2022-10-18T13:55:30.914Z,34.03
2022-10-18T13:58:35.805Z,34.13
2022-10-18T14:01:15.498Z,32.89
2022-10-18T14:03:58.712Z,33.53
2022-10-18T14:06:42.861Z,36.41
2022-10-18T14:12:17.621Z,35.21
2022-10-18T14:14:54.119Z,35.25
2022-10-18T14:17:24.738Z,34.49
2022-10-18T14:19:58.065Z,35.86
2022-10-18T14:23:04.712Z,36.05
2022-10-18T14:25:37.820Z,37.36
2022-10-18T14:28:19.862Z,37.75
2022-10-18T14:30:53.649Z,35.80
2022-10-18T14:33:28.991Z,35.92
2022-10-18T14:36:04.391Z,36.51
2022-10-18T14:38:32.890Z,36.85
2022-10-18T14:41:21.282Z,36.77
2022-10-18T14:43:49.868Z,36.74
2022-10-18T14:46:23.991Z,39.01
2022-10-18T14:48:57.301Z,38.84
2022-10-18T14:51:26.936Z,39.61
2022-10-18T14:53:55.487Z,42.40
2022-10-18T14:56:27.230Z,42.76
2022-10-18T14:58:57.053Z,43.38
2022-10-18T15:01:28.415Z,40.79
2022-10-18T15:03:58.761Z,43.25
2022-10-18T15:06:27.350Z,43.71
2022-10-18T15:08:57.890Z,46.57
2022-10-18T15:11:26.935Z,48.71
2022-10-18T15:13:57.740Z,46.10
2022-10-18T15:16:28.493Z,47.43
2022-10-18T15:19:31.879Z,48.86
2022-10-18T15:22:31.224Z,47.51
2022-10-18T15:25:34.692Z,47.20
2022-10-18T15:28:03.199Z,49.94
2022-10-18T15:30:39.486Z,50.76
2022-10-18T15:33:10.003Z,52.29
2022-10-18T15:35:39.130Z,51.22
2022-10-18T15:38:15.881Z,51.95
2022-10-18T15:40:44.058Z,52.43
2022-10-18T15:43:24.481Z,57.82
2022-10-18T15:46:00.283Z,56.45
2022-10-18T15:48:41.861Z,55.65
2022-10-18T15:51:38.154Z,57.30
2022-10-18T15:54:07.613Z,56.72
2022-10-18T15:56:36.682Z,58.31
2022-10-18T15:59:07.185Z,60.22
2022-10-18T16:01:37.744Z,59.82
2022-10-18T16:04:14.520Z,58.05
2022-10-18T16:06:42.320Z,57.50
2022-10-18T16:09:13.516Z,58.07
2022-10-18T16:11:41.510Z,60.61
2022-10-18T16:14:09.565Z,66.25
2022-10-18T16:16:39.053Z,66.05
2022-10-18T16:19:07.698Z,63.00
2022-10-18T16:21:38.551Z,62.88
2022-10-18T16:24:07.846Z,67.29
2022-10-18T16:26:36.308Z,66.06
2022-10-18T16:29:04.768Z,63.84
2022-10-18T16:31:34.310Z,63.20
2022-10-18T16:34:02.891Z,64.46
2022-10-18T16:36:33.421Z,63.76
2022-10-18T16:39:03.767Z,64.81
2022-10-18T16:41:31.614Z,64.59
2022-10-18T16:43:59.839Z,67.36
2022-10-18T16:46:31.980Z,69.16
2022-10-18T16:49:00.771Z,67.59
2022-10-18T16:51:29.493Z,68.39
2022-10-18T16:53:57.428Z,67.31
2022-10-18T16:56:31.119Z,67.80
2022-10-18T16:59:00.182Z,67.17
2022-10-18T17:01:28.076Z,68.15
2022-10-18T17:03:56.152Z,68.26
2022-10-18T17:06:27.151Z,67.66
2022-10-18T17:08:57.301Z,67.40
2022-10-18T17:11:27.971Z,68.04
2022-10-18T17:13:56.890Z,71.22
2022-10-18T17:19:02.829Z,70.23
2022-10-18T17:21:31.819Z,69.99
2022-10-18T17:24:03.748Z,70.89
2022-10-18T17:26:32.448Z,67.75
2022-10-18T17:29:03.943Z,69.99
2022-10-18T17:31:32.827Z,67.59
2022-10-18T17:34:02.220Z,67.13
2022-10-18T17:36:32.592Z,67.82
2022-10-18T17:39:01.562Z,68.79
2022-10-18T17:41:30.301Z,69.56
2022-10-18T17:44:02.189Z,69.67
2022-10-18T17:46:30.370Z,69.56
2022-10-18T17:49:01.850Z,68.59
2022-10-18T17:51:30.488Z,69.59
2022-10-18T17:53:58.567Z,72.99
2022-10-18T17:56:31.366Z,72.95
2022-10-18T17:59:06.450Z,70.77
2022-10-18T18:01:35.671Z,71.32
2022-10-18T18:04:05.443Z,70.90
2022-10-18T18:06:35.964Z,69.16
2022-10-18T18:09:13.119Z,68.08
2022-10-18T18:11:52.559Z,72.50
2022-10-18T18:14:30.328Z,72.72
2022-10-18T18:17:01.791Z,72.09
2022-10-18T18:19:31.141Z,70.31
2022-10-18T18:21:59.665Z,71.46
2022-10-18T18:24:28.400Z,69.55
2022-10-18T18:26:57.698Z,69.56
2022-10-18T18:29:28.986Z,70.52
2022-10-18T18:31:59.521Z,70.46
2022-10-18T18:34:28.163Z,69.39
2022-10-18T18:36:58.380Z,69.72
2022-10-18T18:39:30.512Z,72.04
2022-10-18T18:41:58.790Z,72.60
2022-10-18T18:44:27.082Z,70.50
2022-10-18T18:46:55.393Z,70.91
2022-10-18T18:49:24.362Z,71.43
2022-10-18T18:51:53.190Z,72.26
2022-10-18T18:54:22.392Z,72.24
2022-10-18T18:56:51.412Z,71.66
2022-10-18T18:59:20.442Z,71.45
2022-10-18T19:01:50.230Z,71.96
2022-10-18T19:04:18.769Z,71.41
2022-10-18T19:06:47.200Z,71.83
2022-10-18T19:09:25.782Z,75.80
2022-10-18T19:11:56.237Z,73.17
2022-10-18T19:14:25.884Z,71.84
2022-10-18T19:16:57.944Z,72.81
2022-10-18T19:19:29.308Z,72.20
2022-10-18T19:22:00.130Z,71.97
2022-10-18T19:24:30.454Z,72.11
2022-10-18T19:27:05.898Z,75.03
2022-10-18T19:29:37.850Z,74.89
2022-10-18T19:32:08.765Z,73.71
2022-10-18T19:34:38.651Z,73.64
2022-10-18T19:37:07.380Z,74.17
2022-10-18T19:39:35.901Z,74.04
2022-10-18T19:42:07.091Z,73.33
2022-10-18T19:44:36.659Z,73.91
2022-10-18T19:47:06.330Z,73.13
2022-10-18T19:49:34.377Z,73.49
2022-10-18T19:52:02.800Z,75.22
2022-10-18T19:54:30.723Z,75.41
2022-10-18T19:56:58.741Z,72.65
2022-10-18T19:59:27.282Z,73.65
2022-10-18T20:01:55.362Z,73.45
2022-10-18T20:04:23.432Z,72.95
2022-10-18T20:06:51.341Z,74.05
2022-10-18T20:09:21.510Z,74.50
2022-10-18T20:11:49.740Z,76.02
2022-10-18T20:14:17.569Z,75.02
2022-10-18T20:16:45.382Z,73.96
2022-10-18T20:19:13.581Z,75.00
2022-10-18T20:21:41.572Z,75.26
2022-10-18T20:24:09.698Z,74.20
2022-10-18T20:26:37.930Z,73.79
2022-10-18T20:29:07.818Z,73.97
2022-10-18T20:31:38.644Z,74.09
2022-10-18T20:34:10.379Z,73.94
2022-10-18T20:36:38.451Z,75.08
2022-10-18T20:39:07.379Z,74.37
2022-10-18T20:41:41.217Z,75.30
2022-10-18T20:44:13.576Z,75.29
2022-10-18T20:46:41.630Z,75.84
2022-10-18T20:49:12.656Z,75.72
2022-10-18T20:51:40.798Z,77.81
2022-10-18T20:54:10.119Z,77.99
2022-10-18T20:56:39.213Z,76.55
2022-10-18T20:59:10.044Z,75.06
2022-10-18T21:01:39.169Z,75.79
2022-10-18T21:04:09.809Z,76.12
2022-10-18T21:06:42.699Z,75.64
2022-10-18T21:09:19.553Z,75.67
2022-10-18T21:11:50.009Z,75.99
2022-10-18T21:14:19.721Z,74.71
2022-10-18T21:16:48.488Z,75.58
2022-10-18T21:19:19.921Z,76.34
2022-10-18T21:21:50.648Z,76.59
2022-10-18T21:24:19.860Z,74.59
2022-10-18T21:26:48.208Z,74.59
2022-10-18T21:29:21.604Z,76.90
2022-10-18T21:31:50.040Z,77.06
2022-10-18T21:34:18.209Z,75.42
2022-10-18T21:36:47.450Z,76.53
2022-10-18T21:39:25.520Z,76.17
2022-10-18T21:41:53.799Z,77.54
2022-10-18T21:44:21.918Z,75.75
2022-10-18T21:46:50.000Z,78.69
2022-10-18T21:49:18.263Z,79.06
2022-10-18T21:51:46.150Z,76.58
2022-10-18T21:54:16.257Z,77.17
2022-10-18T21:56:45.422Z,76.23
2022-10-18T21:59:13.722Z,75.97
2022-10-18T22:01:42.924Z,75.56
2022-10-18T22:04:24.649Z,75.22
2022-10-18T22:06:52.551Z,75.56
2022-10-18T22:09:21.629Z,77.37
2022-10-18T22:11:52.348Z,77.73
2022-10-18T22:14:21.280Z,76.70
2022-10-18T22:16:49.500Z,76.17
2022-10-18T22:19:17.431Z,76.45
2022-10-18T22:21:45.732Z,77.27
2022-10-18T22:24:13.870Z,77.72
2022-10-18T22:26:43.068Z,80.17
2022-10-18T22:29:18.164Z,80.38
2022-10-18T22:31:49.330Z,78.14
2022-10-18T22:34:20.029Z,77.12
2022-10-18T22:36:48.050Z,77.52
2022-10-18T22:39:17.070Z,77.31
2022-10-18T22:41:46.623Z,77.01
2022-10-18T22:44:15.178Z,76.73
2022-10-18T22:46:43.278Z,76.72
2022-10-18T22:49:12.048Z,77.30
2022-10-18T22:51:40.611Z,76.64
2022-10-18T22:54:08.966Z,78.08
2022-10-18T22:56:37.310Z,78.25
2022-10-18T22:59:05.146Z,79.83
2022-10-18T23:01:33.053Z,79.69
2022-10-18T23:04:01.965Z,80.19
2022-10-18T23:06:33.012Z,79.06
2022-10-18T23:09:05.112Z,77.89
2022-10-18T23:11:34.089Z,78.79
2022-10-18T23:14:03.946Z,77.29
2022-10-18T23:16:31.838Z,74.33
2022-10-18T23:18:59.885Z,73.34
2022-10-18T23:21:28.780Z,72.81
2022-10-18T23:23:57.416Z,73.30
2022-10-18T23:26:26.953Z,73.76
2022-10-18T23:28:55.741Z,72.31
2022-10-18T23:31:26.344Z,72.05
2022-10-18T23:33:56.588Z,72.61
2022-10-18T23:36:25.534Z,73.44
2022-10-18T23:38:53.847Z,71.78
2022-10-18T23:41:21.859Z,73.07
2022-10-18T23:43:50.269Z,73.60
2022-10-18T23:46:18.658Z,72.42
2022-10-18T23:48:47.082Z,73.48
2022-10-18T23:51:16.249Z,71.47
2022-10-18T23:53:44.520Z,73.37
2022-10-18T23:56:14.433Z,73.00
2022-10-18T23:58:43.990Z,72.49
